Time;durP1;ratioP1;P1;durP2;ratioP2;P2;SDS_P1;SDS_P2;PMS_P1;PMS_P2;Temp;Humidity;BMP_temperature;BMP_pressure;BME280_temperature;BME280_humidity;BME280_pressure;Samples;Min_cycle;Max_cycle;Signal;HPM_P1;HPM_P2
2022/04/21 00:00:29;;;;;;;4.95;4.07;;;;;;;4.73;89.90;101722.97;5030409;28;20694;-54
2022/04/21 00:02:55;;;;;;;4.43;3.75;;;;;;;4.68;91.21;101724.72;5030243;28;20291;-52
2022/04/21 00:05:20;;;;;;;3.92;3.58;;;;;;;4.67;91.85;101726.47;5029715;28;20283;-53
2022/04/21 00:07:48;;;;;;;4.90;3.72;;;;;;;4.80;91.69;101715.88;5029825;28;20279;-53
2022/04/21 00:10:14;;;;;;;4.55;3.85;;;;;;;4.82;91.67;101730.91;5030271;28;20182;-54
2022/04/21 00:12:39;;;;;;;4.00;3.60;;;;;;;4.83;91.29;101721.19;5029894;28;20175;-55
2022/04/21 00:15:06;;;;;;;4.18;3.75;;;;;;;4.85;91.38;101716.75;5029984;28;20176;-53
2022/04/21 00:17:32;;;;;;;4.45;3.83;;;;;;;4.85;91.06;101720.28;5030159;28;20222;-52
2022/04/21 00:19:58;;;;;;;4.40;4.00;;;;;;;4.77;91.06;101723.81;5028752;28;20209;-53
2022/04/21 00:25:08;;;;;;;4.20;3.80;;;;;;;4.78;90.54;101715.88;5029309;28;20176;-52
2022/04/21 00:27:42;;;;;;;4.55;3.83;;;;;;;4.82;90.35;101719.44;5030218;28;20229;-52
2022/04/21 00:30:08;;;;;;;3.80;3.40;;;;;;;4.70;90.30;101720.28;5030029;28;20176;-52
2022/04/21 00:32:34;;;;;;;6.22;3.60;;;;;;;4.67;90.82;101725.59;5029509;28;20188;-52
2022/04/21 00:35:00;;;;;;;4.88;3.15;;;;;;;4.64;90.66;101709.69;5030144;28;20179;-52
2022/04/21 00:37:26;;;;;;;5.55;3.65;;;;;;;4.64;90.90;101725.63;5029877;28;20208;-52
2022/04/21 00:39:52;;;;;;;5.45;3.40;;;;;;;4.64;90.70;101715.88;5030178;28;20217;-53
2022/04/21 00:42:17;;;;;;;3.78;3.28;;;;;;;4.67;90.67;101715.88;5032213;28;20646;-50
2022/04/21 00:44:42;;;;;;;4.88;3.92;;;;;;;4.64;90.59;101717.66;5033694;28;20186;-53
2022/04/21 00:47:08;;;;;;;4.50;4.07;;;;;;;4.41;90.69;101707.88;5033333;28;20172;-53
2022/04/21 00:49:35;;;;;;;5.35;3.67;;;;;;;4.32;90.95;101722.03;5033176;28;20207;-52
2022/04/21 00:52:02;;;;;;;4.18;3.72;;;;;;;4.13;91.20;101710.50;5033023;28;20301;-53
2022/04/21 00:54:32;;;;;;;5.15;3.80;;;;;;;4.21;92.15;101715.81;5033430;28;20176;-53
2022/04/21 00:56:59;;;;;;;4.00;3.65;;;;;;;4.24;92.59;101722.88;5033158;28;20219;-53
2022/04/21 00:59:25;;;;;;;4.78;4.38;;;;;;;4.26;92.91;101716.72;5032869;28;20187;-53
2022/04/21 01:04:35;;;;;;;6.25;3.90;;;;;;;4.29;92.61;101705.22;5032999;28;20279;-54
2022/04/21 01:07:01;;;;;;;4.80;4.32;;;;;;;4.25;92.01;101708.75;5033052;28;20242;-53
2022/04/21 01:09:27;;;;;;;5.63;4.03;;;;;;;4.17;92.28;101710.50;5032973;28;20289;-55
2022/04/21 01:11:52;;;;;;;4.35;3.72;;;;;;;4.12;92.47;101707.84;5033137;28;20172;-53
2022/04/21 01:14:19;;;;;;;5.40;4.50;;;;;;;4.03;92.74;101711.34;5033261;28;20208;-53
2022/04/21 01:16:45;;;;;;;5.78;4.70;;;;;;;3.97;93.11;101710.44;5032612;28;20218;-55
2022/04/21 01:19:10;;;;;;;5.32;4.55;;;;;;;3.65;93.69;101711.19;5033012;28;20191;-54
2022/04/21 01:21:36;;;;;;;5.03;4.40;;;;;;;3.65;94.65;101712.09;5033108;28;20578;-55
2022/04/21 01:24:04;;;;;;;5.53;4.50;;;;;;;3.72;95.45;101710.38;5033503;28;20184;-53
2022/04/21 01:26:37;;;;;;;8.90;5.20;;;;;;;3.59;95.26;101709.41;5029846;28;20175;-53
2022/04/21 01:29:05;;;;;;;6.10;5.00;;;;;;;3.55;95.62;101720.00;5045676;28;20729;-55
2022/04/21 01:31:30;;;;;;;6.13;4.78;;;;;;;3.39;95.96;101711.06;5051790;28;20203;-54
2022/04/21 01:33:56;;;;;;;7.80;5.00;;;;;;;3.39;96.47;101708.41;5052947;28;20179;-53
2022/04/21 01:36:22;;;;;;;5.78;4.25;;;;;;;3.49;96.89;101705.81;5046372;28;20211;-53
2022/04/21 01:41:31;;;;;;;5.25;4.72;;;;;;;3.33;97.71;101689.88;5052210;28;20637;-52
2022/04/21 01:43:56;;;;;;;9.55;5.38;;;;;;;3.46;98.28;101697.00;5052767;28;20182;-54
2022/04/21 01:46:22;;;;;;;8.70;5.20;;;;;;;3.45;98.50;101698.72;5052519;28;20267;-52
2022/04/21 01:48:47;;;;;;;9.13;5.13;;;;;;;3.54;98.72;101694.38;5052156;28;20191;-52
2022/04/21 01:51:13;;;;;;;5.60;5.05;;;;;;;3.64;98.73;101685.59;5050852;28;20187;-53
2022/04/21 01:53:38;;;;;;;6.80;5.20;;;;;;;3.60;98.34;101673.19;5051918;28;20638;-50
2022/04/21 01:56:04;;;;;;;5.97;4.63;;;;;;;3.66;98.20;101684.72;5052315;28;20556;-51
2022/04/21 01:58:29;;;;;;;8.18;4.85;;;;;;;3.66;97.75;101683.84;5052018;28;20188;-52
2022/04/21 02:00:55;;;;;;;5.10;4.60;;;;;;;3.68;97.48;101674.13;5052666;28;20650;-52
2022/04/21 02:03:20;;;;;;;5.28;4.78;;;;;;;3.59;96.65;101680.28;5052342;28;20571;-50
2022/04/21 02:05:46;;;;;;;4.82;4.35;;;;;;;3.39;96.62;101671.34;5051825;28;20262;-53
2022/04/21 02:08:12;;;;;;;5.68;4.70;;;;;;;3.28;97.10;101669.53;5052002;28;20189;-52
2022/04/21 02:10:37;;;;;;;8.20;4.75;;;;;;;3.12;97.24;101675.59;5051171;28;20171;-51
2022/04/21 02:13:03;;;;;;;4.55;4.15;;;;;;;3.07;97.87;101675.59;5051922;28;20782;-50
2022/04/21 02:15:28;;;;;;;5.97;5.00;;;;;;;3.07;98.52;101672.06;5051687;28;20199;-51
2022/04/21 02:17:54;;;;;;;7.43;5.45;;;;;;;3.18;98.79;101666.81;5051751;28;20224;-49
2022/04/21 02:20:20;;;;;;;5.78;5.00;;;;;;;3.25;98.71;101665.97;5051683;28;20207;-50
2022/04/21 02:22:46;;;;;;;8.80;6.30;;;;;;;3.23;98.73;101662.44;5052116;28;20274;-49
2022/04/21 02:25:14;;;;;;;5.85;5.05;;;;;;;3.33;98.60;101663.38;5051794;28;20183;-48
2022/04/21 02:27:43;;;;;;;10.27;5.72;;;;;;;3.27;98.21;101665.09;5051944;28;20539;-49
2022/04/21 02:30:10;;;;;;;6.03;5.53;;;;;;;3.34;98.08;101643.94;5051704;28;20171;-49
2022/04/21 02:32:36;;;;;;;6.40;5.65;;;;;;;3.34;97.97;101657.19;5051740;28;20178;-49
2022/04/21 02:35:02;;;;;;;8.23;5.80;;;;;;;3.10;97.55;101658.81;5051386;28;20175;-48
2022/04/21 02:37:34;;;;;;;11.00;6.20;;;;;;;2.89;97.79;101657.81;5050985;28;20195;-48
2022/04/21 02:39:59;;;;;;;9.32;6.18;;;;;;;2.74;98.42;101651.56;5051187;28;20657;-49
2022/04/21 02:42:24;;;;;;;9.23;5.70;;;;;;;2.80;98.84;101656.84;5051742;28;20285;-49
2022/04/21 02:44:50;;;;;;;8.13;6.15;;;;;;;2.73;99.28;101649.75;5051342;28;20229;-47
2022/04/21 02:47:16;;;;;;;8.93;6.00;;;;;;;2.69;99.88;101651.53;5051215;28;20163;-48
2022/04/21 02:49:46;;;;;;;6.30;5.65;;;;;;;2.58;100.00;101648.78;5051699;28;20175;-50
2022/04/21 02:52:12;;;;;;;6.72;6.07;;;;;;;2.61;100.00;101650.56;5066330;28;20187;-47
2022/04/21 02:57:23;;;;;;;7.25;6.25;;;;;;;2.76;100.00;101653.31;5050941;28;20674;-46
2022/04/21 02:59:50;;;;;;;8.45;6.70;;;;;;;2.74;100.00;101646.25;5051334;28;20183;-46
2022/04/21 03:02:17;;;;;;;9.32;6.38;;;;;;;2.77;100.00;101647.16;5048937;28;20635;-48
2022/04/21 03:04:42;;;;;;;9.68;6.40;;;;;;;2.82;100.00;101642.78;5051410;28;20225;-45
2022/04/21 03:07:08;;;;;;;6.82;6.07;;;;;;;2.92;100.00;101638.44;5051024;28;20155;-48
2022/04/21 03:09:33;;;;;;;8.65;6.13;;;;;;;3.01;100.00;101640.25;5051078;28;20226;-45
2022/04/21 03:12:03;;;;;;;7.18;6.47;;;;;;;3.01;100.00;101640.25;5050871;28;20242;-45
2022/04/21 03:14:29;;;;;;;6.30;5.30;;;;;;;3.02;100.00;101634.09;5051033;28;20202;-47
2022/04/21 03:16:54;;;;;;;6.50;5.80;;;;;;;3.12;100.00;101635.88;5050641;28;20227;-46
2022/04/21 03:19:19;;;;;;;7.22;5.70;;;;;;;3.13;100.00;101629.72;5050846;28;20274;-46
2022/04/21 03:24:29;;;;;;;6.13;5.20;;;;;;;3.11;99.85;101618.25;5050854;28;20159;-46
2022/04/21 03:26:55;;;;;;;7.38;6.13;;;;;;;3.03;99.46;101633.19;5041642;28;20184;-46
2022/04/21 03:29:21;;;;;;;7.45;5.10;;;;;;;3.06;99.52;101634.13;5036532;28;20484;-47
2022/04/21 03:31:48;;;;;;;7.18;5.50;;;;;;;3.07;99.67;101629.69;5050872;28;20175;-46
2022/04/21 03:34:19;;;;;;;7.82;5.97;;;;;;;3.00;99.61;101628.78;5050429;28;20171;-47
2022/04/21 03:36:49;;;;;;;6.88;5.80;;;;;;;2.88;99.48;101637.50;5050260;28;20302;-47
2022/04/21 03:39:20;;;;;;;8.02;5.80;;;;;;;2.84;99.76;101627.81;5050160;28;20241;-47
2022/04/21 03:41:46;;;;;;;5.22;4.55;;;;;;;2.97;99.76;101634.03;5050226;28;20226;-50
2022/04/21 03:44:12;;;;;;;6.82;5.35;;;;;;;2.93;99.48;101634.00;5046748;28;20222;-46
2022/04/21 03:46:38;;;;;;;9.43;5.55;;;;;;;2.93;99.43;101632.28;5038514;28;20175;-46
2022/04/21 03:49:07;;;;;;;6.80;5.53;;;;;;;2.78;99.21;101637.47;5049679;28;20199;-47
2022/04/21 03:51:33;;;;;;;6.20;5.60;;;;;;;2.80;99.45;101639.25;5049987;28;20250;-46
2022/04/21 03:53:59;;;;;;;6.43;5.10;;;;;;;2.76;99.16;101639.22;5049366;28;20270;-48
2022/04/21 03:56:26;;;;;;;6.05;5.45;;;;;;;2.72;99.35;101632.13;5048032;28;20301;-47
2022/04/21 03:58:52;;;;;;;5.70;5.10;;;;;;;2.57;99.56;101636.41;5050089;28;20306;-48
2022/04/21 04:01:18;;;;;;;6.72;5.50;;;;;;;2.54;99.86;101627.59;5049776;28;20263;-48
2022/04/21 04:03:44;;;;;;;6.32;5.53;;;;;;;2.70;99.99;101623.28;5049883;28;20211;-46
2022/04/21 04:11:38;;;;;;;7.25;5.20;;;;;;;2.97;99.81;101631.38;5049726;28;20205;-48
2022/04/21 04:14:05;;;;;;;8.13;5.57;;;;;;;2.79;100.00;101634.81;5049746;28;20654;-47
2022/04/21 04:16:33;;;;;;;7.57;6.05;;;;;;;2.68;100.00;101633.84;5049274;28;20218;-47
2022/04/21 04:19:00;;;;;;;7.35;6.35;;;;;;;2.64;100.00;101630.28;5048145;28;20183;-48
2022/04/21 04:21:26;;;;;;;7.13;6.43;;;;;;;2.66;100.00;101635.59;5049293;28;20186;-45
2022/04/21 04:23:51;;;;;;;7.68;5.90;;;;;;;2.89;100.00;101634.00;5049830;28;20216;-47
2022/04/21 04:26:16;;;;;;;8.27;6.70;;;;;;;2.97;100.00;101628.75;5049356;28;20175;-49
2022/04/21 04:28:42;;;;;;;6.70;6.00;;;;;;;3.05;100.00;101634.09;5049553;28;20279;-49
2022/04/21 04:31:08;;;;;;;9.02;6.82;;;;;;;3.08;100.00;101631.44;5049539;28;20163;-47
2022/04/21 04:33:34;;;;;;;8.30;6.65;;;;;;;3.12;100.00;101630.59;5049614;28;20701;-48
2022/04/21 04:36:00;;;;;;;8.13;6.38;;;;;;;3.07;100.00;101625.28;5049462;28;20210;-49
2022/04/21 04:38:26;;;;;;;9.52;6.68;;;;;;;3.09;100.00;101635.88;5049550;28;20277;-48
2022/04/21 04:40:51;;;;;;;7.50;6.45;;;;;;;3.12;100.00;101627.94;5050036;28;20187;-48
2022/04/21 04:43:16;;;;;;;6.35;5.60;;;;;;;3.23;100.00;101628.88;5064911;28;20187;-48
2022/04/21 04:48:26;;;;;;;6.65;5.68;;;;;;;3.46;100.00;101633.41;5049644;28;20206;-47
2022/04/21 04:50:51;;;;;;;9.27;6.68;;;;;;;3.64;100.00;101611.41;5049870;28;20168;-48
2022/04/21 04:53:17;;;;;;;7.80;6.07;;;;;;;3.99;100.00;101634.44;5048211;28;20650;-48
2022/04/21 04:55:42;;;;;;;8.35;6.63;;;;;;;4.19;100.00;101630.03;5048140;28;20246;-49
2022/04/21 04:58:08;;;;;;;7.53;6.43;;;;;;;4.47;100.00;101622.09;5049437;28;20618;-49
2022/04/21 05:00:33;;;;;;;9.90;6.40;;;;;;;4.70;99.01;101616.75;5049626;28;20254;-48
2022/04/21 05:02:59;;;;;;;6.93;5.63;;;;;;;5.01;98.14;101620.25;5047931;28;20179;-48
2022/04/21 05:05:24;;;;;;;6.95;5.75;;;;;;;5.42;97.04;101615.69;5049607;28;20662;-48
2022/04/21 05:07:50;;;;;;;6.25;5.65;;;;;;;5.83;95.76;101607.50;5049301;28;20227;-47
2022/04/21 05:10:18;;;;;;;8.63;6.05;;;;;;;6.13;94.35;101614.44;5049562;28;20229;-49
2022/04/21 05:12:44;;;;;;;6.97;6.28;;;;;;;6.35;92.54;101623.13;5049927;28;20167;-49
2022/04/21 05:15:09;;;;;;;7.93;5.93;;;;;;;6.54;91.87;101612.34;5049347;28;20175;-50
2022/04/21 05:17:35;;;;;;;7.07;5.72;;;;;;;6.83;91.00;101621.81;5049320;28;20669;-48
2022/04/21 05:20:01;;;;;;;6.45;5.72;;;;;;;7.11;89.89;101620.63;5049076;28;20180;-48
2022/04/21 05:22:28;;;;;;;6.38;4.85;;;;;;;7.54;89.26;101609.47;5049674;28;20171;-50
2022/04/21 05:24:56;;;;;;;6.93;5.43;;;;;;;7.66;88.31;101615.53;5049553;28;20202;-49
2022/04/21 05:27:22;;;;;;;7.72;5.50;;;;;;;7.90;88.08;101624.97;5052022;28;20159;-49
2022/04/21 05:32:36;;;;;;;7.43;5.20;;;;;;;8.38;85.86;101614.44;5050597;28;20203;-49
2022/04/21 05:35:03;;;;;;;6.78;4.97;;;;;;;8.74;86.10;101609.38;5051513;28;20187;-48
2022/04/21 05:37:28;;;;;;;5.65;5.05;;;;;;;9.00;85.39;101607.09;5052210;28;20187;-49
2022/04/21 05:39:54;;;;;;;6.40;5.38;;;;;;;9.48;84.45;101606.16;5052954;28;20246;-49
2022/04/21 05:42:23;;;;;;;6.15;5.20;;;;;;;9.56;83.29;101603.31;5052473;28;20186;-49
2022/04/21 05:44:53;;;;;;;7.63;5.55;;;;;;;9.62;83.52;101601.41;5052818;28;20179;-50
2022/04/21 05:47:19;;;;;;;7.45;5.72;;;;;;;9.53;83.83;101606.06;5052057;28;20250;-48
2022/04/21 05:49:45;;;;;;;6.32;5.68;;;;;;;9.49;84.73;101606.13;5052499;28;20179;-50
2022/04/21 05:52:12;;;;;;;7.22;6.53;;;;;;;9.31;84.62;101617.19;5052367;28;20610;-48
2022/04/21 05:54:38;;;;;;;7.97;7.07;;;;;;;9.22;85.43;101620.06;5047846;28;20241;-49
2022/04/21 05:57:04;;;;;;;8.35;6.78;;;;;;;9.25;87.03;101618.22;5051902;28;20204;-48
2022/04/21 05:59:29;;;;;;;7.85;7.05;;;;;;;9.08;87.52;101615.88;5052437;28;20680;-48
2022/04/21 06:01:55;;;;;;;8.93;7.63;;;;;;;9.22;87.99;101620.94;5052057;28;20294;-48
2022/04/21 06:04:22;;;;;;;9.18;7.47;;;;;;;9.47;87.27;101613.31;5051178;28;20159;-48
2022/04/21 06:06:48;;;;;;;9.13;7.45;;;;;;;9.57;87.97;101618.44;5052296;28;20251;-49
2022/04/21 06:09:13;;;;;;;8.95;8.13;;;;;;;9.46;87.51;101613.31;5052436;28;20617;-48
2022/04/21 06:11:39;;;;;;;10.05;8.25;;;;;;;9.41;87.36;101616.09;5051805;28;20163;-47
2022/04/21 06:14:04;;;;;;;9.88;8.50;;;;;;;9.46;87.13;101613.31;5052214;28;20614;-49
2022/04/21 06:16:30;;;;;;;10.20;8.45;;;;;;;9.53;87.09;101616.75;5051938;28;20187;-49
2022/04/21 06:18:55;;;;;;;10.88;9.25;;;;;;;9.57;86.58;101607.75;5051887;28;20246;-50
2022/04/21 06:21:20;;;;;;;12.15;8.70;;;;;;;10.05;86.09;101608.44;5052016;28;20212;-49
2022/04/21 06:23:46;;;;;;;10.52;8.60;;;;;;;10.66;83.89;101598.03;5051913;28;20190;-51
2022/04/21 06:26:11;;;;;;;8.60;7.75;;;;;;;10.22;81.96;101591.09;5051344;28;20176;-48
2022/04/21 06:28:37;;;;;;;8.27;6.78;;;;;;;10.26;79.67;101598.16;5050110;28;20195;-48
2022/04/21 06:31:03;;;;;;;7.10;6.38;;;;;;;10.43;78.72;101605.78;5067296;28;20665;-49
2022/04/21 06:33:31;;;;;;;6.30;5.75;;;;;;;10.41;76.79;101603.16;5051692;28;20174;-50
2022/04/21 06:35:58;;;;;;;5.57;5.07;;;;;;;10.22;75.06;101604.50;5051311;28;20201;-48
2022/04/21 06:38:24;;;;;;;5.40;4.00;;;;;;;10.87;72.26;101598.41;5050478;28;20184;-49
2022/04/21 06:40:49;;;;;;;6.07;3.85;;;;;;;11.05;70.47;101603.25;5050038;28;20532;-49
2022/04/21 06:48:45;;;;;;;6.78;2.95;;;;;;;10.27;68.91;101614.16;5051519;28;20265;-48
2022/04/21 06:51:11;;;;;;;5.60;3.38;;;;;;;10.32;69.84;101608.75;5051115;28;20236;-48
2022/04/21 06:53:37;;;;;;;4.05;3.20;;;;;;;10.71;69.24;101609.53;5051468;28;20202;-48
2022/04/21 06:56:04;;;;;;;4.60;3.40;;;;;;;10.05;69.31;101604.88;5050947;28;20265;-49
2022/04/21 06:58:29;;;;;;;3.20;2.85;;;;;;;10.34;68.94;101601.53;5051384;28;20294;-48
2022/04/21 07:00:54;;;;;;;4.60;2.90;;;;;;;10.38;68.62;101605.88;5051312;28;20591;-47
2022/04/21 07:03:20;;;;;;;2.97;2.78;;;;;;;10.36;68.45;101614.88;5066465;28;20258;-48
2022/04/21 07:05:46;;;;;;;5.88;2.70;;;;;;;11.21;67.68;101609.03;5047407;28;20633;-49
2022/04/21 07:08:11;;;;;;;4.40;3.05;;;;;;;10.85;66.71;101619.00;5047628;28;20226;-47
2022/04/21 07:10:39;;;;;;;5.53;2.80;;;;;;;10.89;66.05;101620.69;5051140;28;20229;-47
2022/04/21 07:13:12;;;;;;;3.08;2.80;;;;;;;11.09;65.95;101612.09;5050911;28;20169;-48
2022/04/21 07:15:43;;;;;;;7.15;3.15;;;;;;;10.93;65.33;101612.50;5050816;28;20186;-46
2022/04/21 07:18:09;;;;;;;3.67;2.50;;;;;;;11.26;64.31;101612.50;5050514;28;20203;-48
2022/04/21 07:20:34;;;;;;;4.97;2.70;;;;;;;11.30;63.77;101607.91;5051075;28;20190;-46
2022/04/21 07:23:00;;;;;;;4.45;2.30;;;;;;;11.50;61.75;101602.84;5050897;28;20168;-49
2022/04/21 07:25:26;;;;;;;3.00;2.35;;;;;;;11.36;61.78;101618.47;5050810;28;20539;-49
2022/04/21 07:27:53;;;;;;;3.67;2.40;;;;;;;11.21;61.54;101614.41;5050448;28;20214;-48
2022/04/21 07:30:19;;;;;;;5.03;2.05;;;;;;;11.40;61.56;101628.19;5050762;28;20257;-48
2022/04/21 07:32:44;;;;;;;3.50;1.85;;;;;;;11.63;61.60;101618.56;5050571;28;20638;-46
2022/04/21 07:35:10;;;;;;;3.90;2.30;;;;;;;11.14;61.37;101616.38;5050744;28;20638;-50
2022/04/21 07:37:37;;;;;;;2.08;1.88;;;;;;;10.79;60.79;101628.06;5050330;28;20313;-47
2022/04/21 07:40:04;;;;;;;4.13;2.20;;;;;;;11.32;61.92;101631.06;5050201;28;20181;-48
2022/04/21 07:42:30;;;;;;;3.78;2.28;;;;;;;11.64;60.63;101610.47;5050622;28;20454;-47
2022/04/21 07:44:58;;;;;;;2.20;2.00;;;;;;;11.26;61.12;101617.84;5050162;28;20167;-48
2022/04/21 07:47:23;;;;;;;2.72;1.92;;;;;;;11.52;60.92;101624.25;5050142;28;20180;-48
2022/04/21 07:49:48;;;;;;;3.00;2.33;;;;;;;11.79;59.91;101605.59;5049982;28;20304;-48
2022/04/21 07:55:14;;;;;;;3.75;2.30;;;;;;;11.10;61.16;101620.06;5050447;28;20179;-47
2022/04/21 07:57:40;;;;;;;2.92;1.98;;;;;;;11.52;61.33;101616.19;5050144;28;20276;-49
2022/04/21 08:00:07;;;;;;;2.47;2.28;;;;;;;11.66;61.13;101616.69;5050219;28;20164;-49
2022/04/21 08:02:40;;;;;;;3.05;2.30;;;;;;;11.73;60.43;101623.63;5050384;28;20614;-48
2022/04/21 08:05:07;;;;;;;3.65;2.30;;;;;;;11.60;62.34;101610.63;5050154;28;20175;-49
2022/04/21 08:07:34;;;;;;;2.80;2.20;;;;;;;11.98;60.04;101624.69;5049848;28;20245;-48
2022/04/21 08:10:10;;;;;;;2.45;1.95;;;;;;;12.45;58.08;101600.78;5049714;28;20175;-49
2022/04/21 08:12:42;;;;;;;1.98;1.77;;;;;;;12.08;58.15;101619.00;5049933;28;20186;-48
2022/04/21 08:15:09;;;;;;;5.25;1.85;;;;;;;11.73;59.02;101622.75;5050046;28;20194;-49
2022/04/21 08:17:36;;;;;;;3.05;1.63;;;;;;;11.79;57.89;101621.69;5049454;28;20215;-50
2022/04/21 08:20:07;;;;;;;2.80;1.88;;;;;;;11.80;58.44;101618.06;5049604;28;20239;-51
2022/04/21 08:22:33;;;;;;;2.58;1.63;;;;;;;11.66;58.22;101610.44;5049920;28;20294;-50
2022/04/21 08:33:15;;;;;;;1.73;1.60;;;;;;;11.45;57.11;101623.56;5029847;28;20285;-48
2022/04/21 08:35:41;;;;;;;4.22;1.70;;;;;;;11.62;57.32;101615.00;5049742;28;20592;-46
2022/04/21 08:38:09;;;;;;;1.70;1.60;;;;;;;11.76;56.53;101611.91;5049270;28;20274;-48
2022/04/21 08:40:37;;;;;;;2.83;2.03;;;;;;;11.79;56.30;101606.44;5049673;28;20258;-48
2022/04/21 08:43:16;;;;;;;1.85;1.75;;;;;;;11.45;57.25;101615.50;5049580;28;20164;-47
2022/04/21 08:45:45;;;;;;;3.17;2.00;;;;;;;12.34;57.85;101602.03;5049448;28;20262;-49
2022/04/21 08:48:12;;;;;;;2.20;2.00;;;;;;;13.43;57.19;101597.31;5049079;28;20198;-48
2022/04/21 08:50:39;;;;;;;2.88;2.20;;;;;;;13.17;56.85;101609.91;5048526;28;20324;-47
2022/04/21 08:53:10;;;;;;;2.95;1.77;;;;;;;12.84;55.18;101601.22;5049399;28;20258;-48
2022/04/21 08:55:36;;;;;;;2.38;2.15;;;;;;;11.97;57.32;101609.53;5049256;28;20203;-47
2022/04/21 08:58:03;;;;;;;3.83;2.10;;;;;;;12.65;57.52;101610.88;5049083;28;20261;-45
2022/04/21 09:00:32;;;;;;;1.60;1.50;;;;;;;12.16;55.80;101608.88;5050152;28;20258;-45
2022/04/21 09:02:58;;;;;;;3.25;1.63;;;;;;;12.55;56.54;101607.59;5053585;28;20258;-45
2022/04/21 09:05:27;;;;;;;3.05;1.80;;;;;;;12.69;55.41;101605.31;5053033;28;20646;-45
2022/04/21 09:07:53;;;;;;;2.65;2.15;;;;;;;12.89;56.50;101610.00;5053032;28;20230;-46
2022/04/21 09:10:20;;;;;;;2.67;2.00;;;;;;;12.62;57.25;101610.97;5053072;28;20167;-46
2022/04/21 09:12:50;;;;;;;2.92;1.95;;;;;;;12.22;56.83;101607.78;5052842;28;20261;-50
2022/04/21 09:15:43;;;;;;;4.63;2.10;;;;;;;12.65;56.74;101603.66;5052914;28;20214;-49
2022/04/21 09:18:10;;;;;;;2.88;2.33;;;;;;;12.01;57.10;101593.25;5051725;28;20221;-49
2022/04/21 09:20:37;;;;;;;3.45;2.10;;;;;;;12.76;56.25;101601.47;5052890;28;20163;-48
2022/04/21 09:23:06;;;;;;;3.47;2.30;;;;;;;12.42;57.34;101596.41;5053140;28;20171;-48
2022/04/21 09:25:44;;;;;;;2.47;2.28;;;;;;;12.99;56.61;101586.38;5053239;28;20269;-50
2022/04/21 09:28:36;;;;;;;2.30;1.77;;;;;;;12.92;54.99;101587.50;5052570;28;20222;-50
2022/04/21 09:31:02;;;;;;;4.90;2.25;;;;;;;12.56;56.79;101593.25;5051730;28;20633;-47
2022/04/21 09:33:28;;;;;;;3.40;2.10;;;;;;;12.46;56.35;101597.16;5052983;28;20267;-48
2022/04/21 09:35:57;;;;;;;1.80;1.67;;;;;;;12.27;55.97;101596.91;5052674;28;20614;-48
2022/04/21 09:38:23;;;;;;;2.83;1.83;;;;;;;12.59;57.16;101593.13;5049899;28;20301;-47
2022/04/21 09:40:49;;;;;;;2.85;1.95;;;;;;;12.71;57.66;101599.91;5052637;28;20202;-49
2022/04/21 09:43:26;;;;;;;2.47;1.95;;;;;;;13.35;57.42;101594.91;5041101;28;20169;-50
2022/04/21 09:48:52;;;;;;;10.13;2.35;;;;;;;12.62;56.36;101598.41;5023668;28;20549;-48
2022/04/21 09:51:23;;;;;;;5.20;1.95;;;;;;;12.25;57.31;101596.09;5032817;28;20218;-49
2022/04/21 09:53:58;;;;;;;3.00;2.00;;;;;;;12.13;57.85;101598.25;5032186;28;20195;-50
2022/04/21 09:56:44;;;;;;;2.30;1.77;;;;;;;12.32;58.18;101593.13;5030535;28;20226;-49
2022/04/21 09:59:11;;;;;;;3.00;1.88;;;;;;;12.75;58.69;101589.00;5032230;28;20199;-48
2022/04/21 10:01:41;;;;;;;2.17;1.70;;;;;;;12.87;58.40;101597.53;5032128;28;20218;-50
2022/04/21 10:04:13;;;;;;;5.03;2.00;;;;;;;12.93;57.07;101584.75;5031955;28;20271;-47
2022/04/21 10:06:40;;;;;;;2.72;2.13;;;;;;;12.27;57.56;101588.84;5032134;28;20176;-50
2022/04/21 10:09:07;;;;;;;1.90;1.60;;;;;;;12.67;56.79;101574.06;5031772;28;20199;-48
2022/04/21 10:11:33;;;;;;;5.72;1.80;;;;;;;13.10;55.51;101578.78;5032024;28;20198;-47
2022/04/21 10:13:58;;;;;;;2.08;1.85;;;;;;;12.11;56.08;101580.41;5031579;28;20195;-47
2022/04/21 10:16:30;;;;;;;2.03;1.90;;;;;;;12.31;56.06;101582.44;5030925;28;20215;-51
2022/04/21 10:18:58;;;;;;;1.95;1.73;;;;;;;12.25;57.30;101574.59;5032665;28;20196;-47
2022/04/21 10:21:34;;;;;;;4.63;1.98;;;;;;;12.56;58.87;101574.44;5032328;28;20183;-51
2022/04/21 10:24:00;;;;;;;1.58;1.45;;;;;;;12.53;58.26;101580.78;5032181;28;20187;-49
2022/04/21 10:26:40;;;;;;;2.60;2.40;;;;;;;11.85;59.34;101574.06;5032287;28;20168;-48
2022/04/21 10:29:15;;;;;;;2.55;1.92;;;;;;;11.84;56.79;101583.00;5032090;28;20683;-49
2022/04/21 10:32:04;;;;;;;3.20;2.95;;;;;;;11.71;65.00;101584.31;5032328;28;20164;-47
2022/04/21 10:34:36;;;;;;;3.25;1.90;;;;;;;12.36;58.56;101575.13;5028800;28;20274;-48
2022/04/21 10:37:06;;;;;;;1.90;1.70;;;;;;;12.54;55.42;101578.97;5031737;28;20621;-48
2022/04/21 10:39:32;;;;;;;3.72;1.80;;;;;;;12.51;54.71;101590.72;5030674;28;20195;-51
2022/04/21 10:42:18;;;;;;;2.60;1.85;;;;;;;12.26;55.94;101587.97;5031827;28;20714;-47
2022/04/21 10:44:45;;;;;;;2.72;2.20;;;;;;;12.23;55.51;101580.00;5031979;28;20647;-48
2022/04/21 10:47:29;;;;;;;2.60;1.98;;;;;;;12.33;56.02;101581.47;5042352;28;20266;-47
2022/04/21 10:50:19;;;;;;;3.17;2.20;;;;;;;12.81;54.37;101579.81;5051520;28;20249;-46
2022/04/21 10:58:35;;;;;;;3.58;2.50;;;;;;;12.37;57.68;101571.47;5051198;28;20199;-48
2022/04/21 11:01:28;;;;;;;2.97;2.70;;;;;;;12.61;58.06;101582.31;5051197;28;20253;-49
2022/04/21 11:04:19;;;;;;;5.40;3.80;;;;;;;12.53;58.35;101588.84;5051527;28;20638;-49
2022/04/21 11:06:54;;;;;;;4.38;3.65;;;;;;;12.52;57.89;101588.91;5050714;28;20175;-48
2022/04/21 11:09:47;;;;;;;5.75;3.83;;;;;;;12.56;59.33;101585.19;5051329;28;20262;-46
2022/04/21 11:12:16;;;;;;;5.38;4.25;;;;;;;12.65;57.55;101592.91;5050975;28;20237;-48
2022/04/21 11:14:43;;;;;;;5.28;4.55;;;;;;;12.66;58.67;101583.94;5051019;28;20186;-47
2022/04/21 11:17:09;;;;;;;5.80;4.72;;;;;;;12.39;59.36;101592.94;5050577;28;20211;-49
2022/04/21 11:19:51;;;;;;;5.47;4.47;;;;;;;12.49;59.66;101589.03;5051068;28;20199;-47
2022/04/21 11:22:39;;;;;;;6.95;5.35;;;;;;;12.55;60.34;101591.47;5050830;28;20176;-48
2022/04/21 11:25:06;;;;;;;10.82;4.97;;;;;;;12.13;60.92;101591.97;5050710;28;20187;-48
2022/04/21 11:27:32;;;;;;;7.97;5.05;;;;;;;11.86;60.85;101578.47;5049234;28;20230;-49
2022/04/21 11:30:10;;;;;;;6.22;5.05;;;;;;;12.75;61.04;101586.31;5050776;28;20183;-52
2022/04/21 11:32:35;;;;;;;6.82;5.05;;;;;;;13.33;60.15;101574.38;5050528;28;20199;-47
2022/04/21 11:35:02;;;;;;;5.72;5.22;;;;;;;12.71;60.13;101565.81;5050547;28;20290;-49
2022/04/21 11:37:59;;;;;;;5.75;5.10;;;;;;;12.90;60.30;101574.13;5050442;28;20301;-48
2022/04/21 11:40:29;;;;;;;8.23;5.30;;;;;;;12.91;60.58;101575.00;5050246;28;20183;-51
2022/04/21 11:42:56;;;;;;;5.70;5.18;;;;;;;12.85;59.70;101569.81;5050334;28;20179;-51
2022/04/21 11:45:24;;;;;;;6.35;4.65;;;;;;;12.82;60.02;101573.50;5032211;28;20194;-48
2022/04/21 11:47:50;;;;;;;5.40;4.90;;;;;;;12.27;60.69;101573.59;5049929;28;20321;-48
2022/04/21 11:50:20;;;;;;;5.28;4.43;;;;;;;12.82;60.04;101572.63;5050695;28;20175;-50
2022/04/21 11:52:47;;;;;;;5.95;4.72;;;;;;;12.24;60.10;101571.00;5050546;28;20202;-47
2022/04/21 11:55:15;;;;;;;5.97;5.13;;;;;;;12.53;59.62;101579.91;5050087;28;20261;-47
2022/04/21 11:57:45;;;;;;;7.47;4.95;;;;;;;12.62;60.05;101574.22;5050031;28;20234;-52
2022/04/21 12:00:12;;;;;;;5.75;5.05;;;;;;;12.95;59.04;101566.75;5050292;28;20175;-47
2022/04/21 12:08:07;;;;;;;8.68;4.35;;;;;;;13.75;58.77;101568.25;5050359;28;20194;-48
2022/04/21 12:10:34;;;;;;;5.95;4.75;;;;;;;13.17;57.96;101571.34;5050364;28;20217;-46
2022/04/21 12:13:01;;;;;;;6.82;4.28;;;;;;;13.40;58.22;101573.19;5048653;28;20186;-48
2022/04/21 12:15:31;;;;;;;4.82;3.97;;;;;;;13.00;57.92;101585.41;5050195;28;20163;-49
2022/04/21 12:18:03;;;;;;;5.03;4.50;;;;;;;13.12;58.40;101573.34;5049793;28;20289;-48
2022/04/21 12:20:29;;;;;;;4.93;4.53;;;;;;;13.07;58.38;101567.22;5050198;28;20217;-47
2022/04/21 12:22:56;;;;;;;6.72;3.92;;;;;;;13.16;57.45;101569.56;5048698;28;20241;-47
2022/04/21 12:25:32;;;;;;;5.00;4.00;;;;;;;13.27;57.61;101563.78;5050427;28;20175;-46
2022/04/21 12:28:05;;;;;;;4.40;4.00;;;;;;;12.87;59.21;101565.28;5048701;28;20187;-47